createdAt,value
2023-01-19T00:00:53.134Z,9.02
2023-01-19T00:03:20.545Z,10.13
2023-01-19T00:05:47.408Z,8.95
2023-01-19T00:08:14.849Z,6.78
2023-01-19T00:10:43.758Z,7.18
2023-01-19T00:13:10.606Z,8.23
2023-01-19T00:15:37.430Z,7.90
2023-01-19T00:18:04.395Z,7.18
2023-01-19T00:20:32.855Z,8.93
2023-01-19T00:23:00.124Z,6.70
2023-01-19T00:25:27.305Z,7.38
2023-01-19T00:27:54.253Z,5.57
2023-01-19T00:30:21.020Z,8.70
2023-01-19T00:32:47.768Z,6.53
2023-01-19T00:35:15.035Z,6.50
2023-01-19T00:37:46.180Z,8.57
2023-01-19T00:40:15.161Z,8.55
2023-01-19T00:42:44.255Z,5.97
2023-01-19T00:45:13.536Z,5.50
2023-01-19T00:47:40.473Z,8.05
2023-01-19T00:50:09.100Z,8.23
2023-01-19T00:52:35.738Z,6.88
2023-01-19T00:55:02.438Z,7.63
2023-01-19T00:57:29.650Z,4.85
2023-01-19T00:59:56.589Z,7.18
2023-01-19T01:02:23.427Z,9.90
2023-01-19T01:04:54.848Z,5.63
2023-01-19T01:07:22.779Z,7.25
2023-01-19T01:09:49.662Z,6.38
2023-01-19T01:12:16.381Z,7.28
2023-01-19T01:14:43.407Z,6.05
2023-01-19T01:17:11.562Z,6.90
2023-01-19T01:19:38.836Z,9.68
2023-01-19T01:22:06.156Z,6.25
2023-01-19T01:24:32.957Z,6.32
2023-01-19T01:26:59.731Z,8.32
2023-01-19T01:29:26.623Z,6.20
2023-01-19T01:31:53.487Z,6.90
2023-01-19T01:34:20.232Z,5.47
2023-01-19T01:36:46.984Z,6.97
2023-01-19T01:39:13.653Z,4.30
2023-01-19T01:41:40.355Z,7.90
2023-01-19T01:44:50.053Z,4.88
2023-01-19T01:47:44.394Z,5.35
2023-01-19T01:50:23.312Z,7.68
2023-01-19T01:53:06.379Z,5.80
2023-01-19T01:55:43.257Z,5.75
2023-01-19T01:58:11.524Z,3.97
2023-01-19T02:00:58.813Z,7.07
2023-01-19T02:03:27.066Z,6.35
2023-01-19T02:06:01.263Z,5.00
2023-01-19T02:08:52.633Z,6.00
2023-01-19T02:11:38.281Z,4.57
2023-01-19T02:14:05.797Z,4.40
2023-01-19T02:16:33.286Z,5.93
2023-01-19T02:19:01.255Z,4.78
2023-01-19T02:21:38.481Z,3.15
2023-01-19T02:24:06.666Z,6.65
2023-01-19T02:26:38.162Z,6.65
2023-01-19T02:29:08.870Z,5.05
2023-01-19T02:31:37.422Z,5.00
2023-01-19T02:34:06.156Z,5.80
2023-01-19T02:36:50.033Z,3.13
2023-01-19T02:39:22.184Z,6.10
2023-01-19T02:41:55.234Z,7.22
2023-01-19T02:44:24.367Z,6.10
2023-01-19T02:46:54.258Z,6.22
2023-01-19T02:49:20.948Z,4.95
2023-01-19T02:51:47.911Z,5.15
2023-01-19T02:54:39.373Z,7.00
2023-01-19T02:57:27.477Z,8.10
2023-01-19T03:00:11.949Z,6.88
2023-01-19T03:03:00.586Z,6.95
2023-01-19T03:05:30.681Z,8.73
2023-01-19T03:08:16.311Z,9.80
2023-01-19T03:10:47.759Z,9.40
2023-01-19T03:13:54.730Z,9.57
2023-01-19T03:16:23.713Z,7.95
2023-01-19T03:19:11.261Z,10.82
2023-01-19T03:21:43.080Z,9.35
2023-01-19T03:24:12.428Z,6.75
2023-01-19T03:26:47.142Z,8.77
2023-01-19T03:29:15.788Z,9.57
2023-01-19T03:31:45.374Z,8.75
2023-01-19T03:34:14.978Z,8.85
2023-01-19T03:36:50.722Z,9.00
2023-01-19T03:39:23.030Z,7.38
2023-01-19T03:41:57.656Z,7.50
2023-01-19T03:44:27.788Z,7.30
2023-01-19T03:46:56.176Z,7.00
2023-01-19T03:49:23.065Z,8.48
2023-01-19T03:51:49.867Z,9.00
2023-01-19T03:54:16.593Z,11.05
2023-01-19T03:56:44.679Z,7.85
2023-01-19T03:59:11.400Z,6.05
2023-01-19T04:01:38.214Z,8.38
2023-01-19T04:04:04.928Z,8.55
2023-01-19T04:06:32.168Z,7.65
2023-01-19T04:08:58.858Z,10.05
2023-01-19T04:11:25.691Z,7.88
2023-01-19T04:13:52.387Z,9.68
2023-01-19T04:16:21.180Z,10.38
2023-01-19T04:18:48.520Z,9.55
2023-01-19T04:21:15.711Z,6.90
2023-01-19T04:23:44.376Z,6.80
2023-01-19T04:26:11.101Z,11.27
2023-01-19T04:28:38.435Z,8.55
2023-01-19T04:31:06.651Z,7.85
2023-01-19T04:33:33.481Z,9.07
2023-01-19T04:36:00.191Z,11.00
2023-01-19T04:38:27.175Z,8.80
2023-01-19T04:40:54.706Z,7.47
2023-01-19T04:43:22.745Z,9.77
2023-01-19T04:48:18.398Z,9.13
2023-01-19T04:50:45.438Z,8.55
2023-01-19T04:53:13.706Z,10.93
2023-01-19T04:55:40.654Z,11.68
2023-01-19T04:58:07.699Z,11.65
2023-01-19T05:00:34.487Z,7.00
2023-01-19T05:03:01.832Z,7.38
2023-01-19T05:05:29.480Z,8.20
2023-01-19T05:07:56.194Z,8.95
2023-01-19T05:10:23.813Z,9.60
2023-01-19T05:12:51.319Z,11.50
2023-01-19T05:15:18.701Z,15.77
2023-01-19T05:17:45.582Z,16.45
2023-01-19T05:20:15.919Z,15.57
2023-01-19T05:22:43.653Z,15.82
2023-01-19T05:25:10.404Z,15.88
2023-01-19T05:27:37.652Z,12.90
2023-01-19T05:30:05.640Z,16.17
2023-01-19T05:32:32.405Z,15.27
2023-01-19T05:34:59.200Z,15.55
2023-01-19T05:37:26.105Z,15.77
2023-01-19T05:39:53.397Z,15.02
2023-01-19T05:42:22.841Z,19.23
2023-01-19T05:44:49.581Z,18.42
2023-01-19T05:47:16.496Z,21.95
2023-01-19T05:49:43.166Z,17.88
2023-01-19T05:52:09.936Z,14.55
2023-01-19T05:54:36.678Z,14.85
2023-01-19T05:57:04.562Z,14.02
2023-01-19T06:01:59.877Z,8.18
2023-01-19T06:04:26.923Z,12.20
2023-01-19T06:06:53.709Z,13.00
2023-01-19T06:09:20.394Z,15.52
2023-01-19T06:11:47.503Z,15.18
2023-01-19T06:14:14.209Z,13.67
2023-01-19T06:16:40.990Z,10.13
2023-01-19T06:19:07.809Z,10.15
2023-01-19T06:21:34.653Z,9.57
2023-01-19T06:24:01.508Z,6.93
2023-01-19T06:26:28.283Z,7.60
2023-01-19T06:28:55.772Z,10.10
2023-01-19T06:31:22.946Z,12.02
2023-01-19T06:33:50.180Z,10.88
2023-01-19T06:36:16.886Z,12.18
2023-01-19T06:38:43.969Z,11.35
2023-01-19T06:41:10.718Z,10.30
2023-01-19T06:43:37.409Z,10.07
2023-01-19T06:46:04.900Z,10.50
2023-01-19T06:48:31.691Z,18.58
2023-01-19T06:50:59.722Z,12.27
2023-01-19T06:53:28.093Z,12.90
2023-01-19T06:56:02.027Z,26.92
2023-01-19T06:58:30.349Z,13.60
2023-01-19T07:01:02.396Z,12.23
2023-01-19T07:03:29.323Z,13.55
2023-01-19T07:05:56.938Z,13.40
2023-01-19T07:08:24.102Z,12.73
2023-01-19T07:11:26.218Z,10.35
2023-01-19T07:13:39.510Z,16.03
2023-01-19T07:16:08.519Z,15.02
2023-01-19T07:18:39.557Z,15.70
2023-01-19T07:21:07.358Z,15.35
2023-01-19T07:23:34.215Z,16.63
2023-01-19T07:26:01.835Z,13.00
2023-01-19T07:28:29.709Z,15.45
2023-01-19T07:33:24.972Z,13.07
2023-01-19T07:35:53.033Z,9.85
2023-01-19T07:38:20.525Z,15.35
2023-01-19T07:40:47.577Z,13.38
2023-01-19T07:43:14.805Z,16.80
2023-01-19T07:45:42.860Z,15.55
2023-01-19T07:48:09.737Z,16.88
2023-01-19T07:50:36.659Z,27.10
2023-01-19T07:53:08.490Z,13.80
2023-01-19T07:55:35.929Z,18.60
2023-01-19T07:58:06.611Z,17.70
2023-01-19T08:00:34.419Z,15.07
2023-01-19T08:03:02.998Z,24.33
2023-01-19T08:05:30.539Z,18.23
2023-01-19T08:07:58.482Z,25.40
2023-01-19T08:12:58.198Z,15.93
2023-01-19T08:15:25.299Z,15.82
2023-01-19T08:17:57.489Z,13.53
2023-01-19T08:20:24.876Z,18.00
2023-01-19T08:22:59.671Z,15.13
2023-01-19T08:25:32.660Z,16.08
2023-01-19T08:27:59.427Z,16.75
2023-01-19T08:30:26.831Z,16.90
2023-01-19T08:32:58.148Z,12.93
2023-01-19T08:35:25.158Z,12.85
2023-01-19T08:37:51.876Z,15.32
2023-01-19T08:40:18.597Z,14.35
2023-01-19T08:42:45.933Z,16.07
2023-01-19T08:45:12.671Z,16.23
2023-01-19T08:47:39.502Z,13.15
2023-01-19T08:50:06.744Z,13.82
2023-01-19T08:52:33.483Z,17.98
2023-01-19T08:55:00.792Z,19.13
2023-01-19T08:57:27.679Z,19.77
2023-01-19T08:59:54.392Z,19.70
2023-01-19T09:02:21.292Z,15.38
2023-01-19T09:04:48.723Z,13.27
2023-01-19T09:07:15.603Z,12.85
2023-01-19T09:09:43.555Z,13.38
2023-01-19T09:12:10.502Z,11.38
2023-01-19T09:14:37.251Z,12.00
2023-01-19T09:17:04.336Z,12.70
2023-01-19T09:19:31.064Z,11.77
2023-01-19T09:21:59.501Z,12.63
2023-01-19T09:24:26.505Z,10.32
2023-01-19T09:26:53.227Z,10.53
2023-01-19T09:29:20.079Z,6.45
2023-01-19T09:31:47.023Z,8.88
2023-01-19T09:34:13.918Z,9.60
2023-01-19T09:36:40.622Z,10.07
2023-01-19T09:39:07.347Z,11.10
2023-01-19T09:41:36.336Z,7.68
2023-01-19T09:44:03.735Z,7.78
2023-01-19T09:46:37.036Z,13.00
2023-01-19T09:49:12.718Z,8.27
2023-01-19T09:51:44.960Z,11.65
2023-01-19T09:54:18.728Z,9.68
2023-01-19T09:56:50.685Z,7.88
2023-01-19T09:59:20.724Z,10.40
2023-01-19T10:01:58.872Z,10.07
2023-01-19T10:04:34.360Z,8.68
2023-01-19T10:07:13.567Z,9.52
2023-01-19T10:09:55.390Z,8.35
2023-01-19T10:12:41.755Z,8.13
2023-01-19T10:15:42.848Z,8.38
2023-01-19T10:18:22.871Z,11.93
2023-01-19T10:20:53.792Z,9.45
2023-01-19T10:23:41.599Z,9.48
2023-01-19T10:26:17.988Z,8.70
2023-01-19T10:28:48.000Z,6.65
2023-01-19T10:31:18.352Z,8.65
2023-01-19T10:33:45.593Z,8.05
2023-01-19T10:36:40.137Z,8.90
2023-01-19T10:39:08.103Z,8.68
2023-01-19T10:44:10.925Z,8.00
2023-01-19T10:46:43.864Z,7.35
2023-01-19T10:49:36.329Z,8.82
2023-01-19T10:52:05.557Z,6.78
2023-01-19T10:54:34.839Z,7.82
2023-01-19T10:57:05.085Z,9.30
2023-01-19T10:59:46.573Z,16.00
2023-01-19T11:02:13.383Z,10.73
2023-01-19T11:04:42.080Z,8.85
2023-01-19T11:07:19.528Z,7.25
2023-01-19T11:09:50.224Z,8.85
2023-01-19T11:12:20.306Z,7.13
2023-01-19T11:14:49.179Z,7.07
2023-01-19T11:17:26.084Z,9.40
2023-01-19T11:19:56.535Z,8.47
2023-01-19T11:22:30.980Z,9.63
2023-01-19T11:25:00.023Z,9.82
2023-01-19T11:27:27.693Z,11.43
2023-01-19T11:30:15.439Z,7.78
2023-01-19T11:32:42.999Z,10.23
2023-01-19T11:35:31.912Z,8.82
2023-01-19T11:38:13.575Z,10.13
2023-01-19T11:40:51.838Z,10.98
2023-01-19T11:43:20.820Z,11.63
2023-01-19T11:45:47.697Z,10.73
2023-01-19T11:48:40.442Z,9.45
2023-01-19T11:51:13.958Z,9.20
2023-01-19T11:53:47.012Z,8.68
2023-01-19T11:56:15.922Z,13.85
2023-01-19T11:58:47.981Z,9.70
2023-01-19T12:01:21.181Z,11.57
2023-01-19T12:03:59.246Z,12.48
2023-01-19T12:06:31.492Z,11.45
2023-01-19T12:09:04.136Z,9.27
2023-01-19T12:11:38.794Z,9.90
2023-01-19T12:14:15.291Z,10.02
2023-01-19T12:16:43.830Z,11.18
2023-01-19T12:19:18.500Z,9.48
2023-01-19T12:21:48.425Z,8.10
2023-01-19T12:24:30.260Z,9.07
2023-01-19T12:26:58.982Z,10.13
2023-01-19T12:29:31.375Z,8.90
2023-01-19T12:32:19.715Z,9.13
2023-01-19T12:34:51.997Z,13.38
2023-01-19T12:37:28.754Z,12.93
2023-01-19T12:39:58.003Z,14.13
2023-01-19T12:42:26.460Z,9.23
2023-01-19T12:45:14.941Z,11.35
2023-01-19T12:47:53.571Z,7.80
2023-01-19T12:50:24.097Z,8.43
2023-01-19T12:52:57.419Z,11.93
2023-01-19T12:55:27.766Z,14.45
2023-01-19T12:58:08.511Z,9.45
2023-01-19T13:00:38.630Z,9.60
2023-01-19T13:03:17.229Z,10.10
2023-01-19T13:05:43.982Z,9.80
2023-01-19T13:08:11.431Z,7.95
2023-01-19T13:10:59.803Z,9.35
2023-01-19T13:13:29.509Z,9.23
2023-01-19T13:16:00.653Z,10.77
2023-01-19T13:18:35.339Z,10.35
2023-01-19T13:21:08.811Z,11.30
2023-01-19T13:23:47.628Z,10.38
2023-01-19T13:26:16.679Z,4.40
2023-01-19T13:28:46.338Z,9.02
2023-01-19T13:31:14.065Z,6.57
2023-01-19T13:36:36.345Z,7.35
2023-01-19T13:39:12.579Z,8.98
2023-01-19T13:41:41.321Z,8.63
2023-01-19T13:44:14.889Z,11.88
2023-01-19T13:46:41.929Z,10.70
2023-01-19T13:49:24.396Z,8.83
2023-01-19T13:52:14.967Z,8.07
2023-01-19T13:54:53.340Z,5.72
2023-01-19T13:57:26.561Z,7.47
2023-01-19T14:00:11.930Z,7.70
2023-01-19T14:02:51.990Z,8.70
2023-01-19T14:05:34.246Z,6.90
2023-01-19T14:08:13.755Z,8.35
2023-01-19T14:10:47.426Z,7.60
2023-01-19T14:13:19.060Z,9.15
2023-01-19T14:15:48.693Z,9.55
2023-01-19T14:18:18.749Z,7.07
2023-01-19T14:20:52.528Z,7.53
2023-01-19T14:23:50.324Z,9.00
2023-01-19T14:26:46.459Z,7.68
2023-01-19T14:29:23.814Z,7.90
2023-01-19T14:32:09.493Z,8.75
2023-01-19T14:34:41.363Z,9.23
2023-01-19T14:37:20.166Z,6.78
2023-01-19T14:40:10.711Z,10.57
2023-01-19T14:42:44.355Z,8.32
2023-01-19T14:45:22.679Z,7.60
2023-01-19T14:48:01.933Z,6.75
2023-01-19T14:50:33.762Z,8.23
2023-01-19T14:53:03.804Z,8.73
2023-01-19T14:55:44.539Z,12.13
2023-01-19T14:58:13.266Z,9.60
2023-01-19T15:00:41.513Z,9.55
2023-01-19T15:03:09.991Z,10.70
2023-01-19T15:05:38.363Z,10.60
2023-01-19T15:08:05.904Z,10.43
2023-01-19T15:10:33.480Z,10.93
2023-01-19T15:13:00.528Z,11.63
2023-01-19T15:15:31.912Z,12.35
2023-01-19T15:18:04.039Z,11.50
2023-01-19T15:20:30.916Z,10.88
2023-01-19T15:22:57.700Z,13.23
2023-01-19T15:25:27.862Z,12.55
2023-01-19T15:27:58.856Z,10.85
2023-01-19T15:30:29.678Z,12.45
2023-01-19T15:32:56.883Z,12.10
2023-01-19T15:35:26.705Z,9.23
2023-01-19T15:37:54.112Z,11.60
2023-01-19T15:40:22.907Z,11.77
2023-01-19T15:42:50.459Z,11.80
2023-01-19T15:45:29.005Z,11.43
2023-01-19T15:47:55.705Z,9.48
2023-01-19T15:50:22.793Z,11.38
2023-01-19T15:52:49.538Z,13.98
2023-01-19T15:55:16.358Z,13.15
2023-01-19T15:57:43.420Z,15.25
2023-01-19T16:00:11.628Z,9.35
2023-01-19T16:02:39.106Z,13.25
2023-01-19T16:05:06.380Z,16.85
2023-01-19T16:07:48.262Z,10.50
2023-01-19T16:10:16.966Z,10.95
2023-01-19T16:12:45.099Z,12.73
2023-01-19T16:15:12.335Z,10.82
2023-01-19T16:17:39.108Z,15.63
2023-01-19T16:20:06.691Z,14.23
2023-01-19T16:22:33.591Z,17.70
2023-01-19T16:25:00.288Z,16.73
2023-01-19T16:27:27.033Z,15.52
2023-01-19T16:29:53.751Z,13.35
2023-01-19T16:32:20.478Z,15.45
2023-01-19T16:34:47.203Z,76.32
2023-01-19T16:37:13.930Z,45.50
2023-01-19T16:39:40.837Z,20.20
2023-01-19T16:42:07.558Z,16.48
2023-01-19T16:44:34.285Z,14.98
2023-01-19T16:47:01.076Z,14.20
2023-01-19T16:49:28.613Z,13.45
2023-01-19T16:51:56.147Z,15.20
2023-01-19T16:54:26.015Z,14.63
2023-01-19T16:56:53.886Z,14.35
2023-01-19T16:59:22.055Z,15.23
2023-01-19T17:01:52.804Z,14.80
2023-01-19T17:04:21.155Z,13.27
2023-01-19T17:06:48.092Z,15.90
2023-01-19T17:09:14.808Z,16.73
2023-01-19T17:11:41.871Z,12.63
2023-01-19T17:14:15.156Z,15.35
2023-01-19T17:16:42.844Z,14.43
2023-01-19T17:19:14.486Z,14.82
2023-01-19T17:21:41.231Z,14.55
2023-01-19T17:24:07.960Z,9.52
2023-01-19T17:26:35.036Z,13.85
2023-01-19T17:29:04.931Z,13.70
2023-01-19T17:31:32.875Z,14.10
2023-01-19T17:34:00.210Z,16.58
2023-01-19T17:36:31.352Z,12.85
2023-01-19T17:39:00.177Z,15.35
2023-01-19T17:41:32.431Z,15.48
2023-01-19T17:44:04.927Z,15.52
2023-01-19T17:46:34.533Z,14.32
2023-01-19T17:49:03.301Z,17.88
2023-01-19T17:51:31.324Z,14.43
2023-01-19T17:53:58.975Z,15.25
2023-01-19T17:56:29.921Z,13.75
2023-01-19T17:58:58.187Z,14.38
2023-01-19T18:01:30.539Z,12.13
2023-01-19T18:03:58.047Z,14.35
2023-01-19T18:06:25.263Z,14.13
2023-01-19T18:08:52.633Z,13.13
2023-01-19T18:11:20.606Z,15.65
2023-01-19T18:16:23.350Z,15.85
2023-01-19T18:18:50.923Z,17.52
2023-01-19T18:21:17.994Z,19.83
2023-01-19T18:23:45.657Z,18.60
2023-01-19T18:26:16.087Z,15.50
2023-01-19T18:28:42.976Z,13.82
2023-01-19T18:31:12.240Z,15.68
2023-01-19T18:33:39.448Z,14.65
2023-01-19T18:36:07.082Z,16.42
2023-01-19T18:38:34.407Z,18.35
2023-01-19T18:41:07.263Z,18.42
2023-01-19T18:43:34.696Z,17.40
2023-01-19T18:46:01.848Z,16.88
2023-01-19T18:48:28.858Z,17.58
2023-01-19T18:50:56.416Z,19.25
2023-01-19T18:53:23.639Z,25.45
2023-01-19T18:55:52.111Z,18.90
2023-01-19T18:58:19.718Z,21.23
2023-01-19T19:00:46.939Z,19.45
2023-01-19T19:03:13.639Z,19.05
2023-01-19T19:05:40.532Z,18.90
2023-01-19T19:08:07.361Z,18.48
2023-01-19T19:10:34.531Z,16.20
2023-01-19T19:13:01.665Z,20.00
2023-01-19T19:15:28.396Z,17.50
2023-01-19T19:17:55.253Z,19.17
2023-01-19T19:20:23.384Z,21.25
2023-01-19T19:22:50.487Z,25.08
2023-01-19T19:25:18.080Z,45.88
2023-01-19T19:27:47.779Z,22.48
2023-01-19T19:30:15.057Z,22.25
2023-01-19T19:32:42.007Z,16.40
2023-01-19T19:35:09.162Z,14.55
2023-01-19T19:37:35.870Z,13.15
2023-01-19T19:40:02.637Z,15.38
2023-01-19T19:42:30.113Z,11.50
2023-01-19T19:44:56.839Z,14.90
2023-01-19T19:47:24.521Z,10.45
2023-01-19T19:49:51.262Z,12.25
2023-01-19T19:52:18.015Z,12.32
2023-01-19T19:54:45.229Z,9.38
2023-01-19T19:57:12.013Z,12.85
2023-01-19T19:59:38.779Z,16.63
2023-01-19T20:02:05.595Z,20.27
2023-01-19T20:04:32.437Z,17.20
2023-01-19T20:07:00.088Z,19.05
2023-01-19T20:09:26.843Z,18.50
2023-01-19T20:11:53.625Z,19.35
2023-01-19T20:14:22.380Z,19.77
2023-01-19T20:16:49.115Z,22.50
2023-01-19T20:19:18.021Z,19.67
2023-01-19T20:21:44.718Z,18.45
2023-01-19T20:24:19.369Z,18.55
2023-01-19T20:26:52.180Z,17.17
2023-01-19T20:29:20.254Z,18.88
2023-01-19T20:31:55.350Z,19.48
2023-01-19T20:34:26.168Z,72.03
2023-01-19T20:36:53.963Z,40.92
2023-01-19T20:39:22.380Z,22.60
2023-01-19T20:41:51.165Z,21.55
2023-01-19T20:44:22.337Z,32.85
2023-01-19T20:46:49.508Z,25.58
2023-01-19T20:49:16.404Z,21.65
2023-01-19T20:51:45.238Z,22.57
2023-01-19T20:54:15.312Z,18.58
2023-01-19T20:56:42.202Z,17.90
2023-01-19T20:59:12.856Z,17.52
2023-01-19T21:01:40.547Z,15.20
2023-01-19T21:06:35.055Z,17.27
2023-01-19T21:09:02.068Z,15.60
2023-01-19T21:11:28.818Z,18.03
2023-01-19T21:13:56.517Z,16.75
2023-01-19T21:16:29.154Z,17.60
2023-01-19T21:18:56.151Z,14.95
2023-01-19T21:21:30.873Z,16.48
2023-01-19T21:23:59.079Z,17.10
2023-01-19T21:28:52.709Z,21.33
2023-01-19T21:31:21.335Z,20.40
2023-01-19T21:33:49.283Z,30.08
2023-01-19T21:38:42.642Z,22.45
2023-01-19T21:41:12.698Z,26.20
2023-01-19T21:43:41.792Z,29.05
2023-01-19T21:46:17.501Z,23.73
2023-01-19T21:48:45.795Z,24.17
2023-01-19T21:51:13.496Z,24.13
2023-01-19T21:53:40.741Z,26.00
2023-01-19T21:56:11.513Z,27.10
2023-01-19T21:58:38.431Z,25.70
2023-01-19T22:01:13.666Z,25.37
2023-01-19T22:03:41.717Z,23.67
2023-01-19T22:08:37.190Z,20.40
2023-01-19T22:11:08.996Z,21.38
2023-01-19T22:13:38.448Z,19.40
2023-01-19T22:16:12.013Z,21.13
2023-01-19T22:18:41.764Z,23.45
2023-01-19T22:21:14.604Z,19.08
2023-01-19T22:23:42.195Z,20.02
2023-01-19T22:26:10.497Z,22.65
2023-01-19T22:28:38.059Z,22.13
2023-01-19T22:31:08.874Z,17.83
2023-01-19T22:33:36.316Z,20.48
2023-01-19T22:36:12.159Z,20.65
2023-01-19T22:38:40.205Z,22.73
2023-01-19T22:41:22.021Z,18.88
2023-01-19T22:43:51.006Z,20.40
2023-01-19T22:46:22.371Z,18.25
2023-01-19T22:48:49.958Z,18.60
2023-01-19T22:51:17.659Z,15.23
2023-01-19T22:53:44.567Z,16.73
2023-01-19T22:56:32.373Z,10.20
2023-01-19T22:59:00.089Z,13.65
2023-01-19T23:01:33.528Z,20.30
2023-01-19T23:04:01.710Z,20.05
2023-01-19T23:08:58.544Z,14.90
2023-01-19T23:11:29.928Z,18.80
2023-01-19T23:13:58.284Z,19.75
2023-01-19T23:16:25.639Z,18.00
2023-01-19T23:18:54.524Z,19.02
2023-01-19T23:21:23.429Z,19.50
2023-01-19T23:24:00.659Z,21.60
2023-01-19T23:26:28.908Z,16.58
2023-01-19T23:29:01.086Z,19.65
2023-01-19T23:31:29.041Z,20.08
2023-01-19T23:36:29.242Z,22.40
2023-01-19T23:39:01.100Z,19.02
2023-01-19T23:41:30.528Z,22.08
2023-01-19T23:46:38.168Z,23.95
2023-01-19T23:51:45.961Z,18.55
2023-01-19T23:54:12.748Z,15.73
2023-01-19T23:56:40.058Z,17.55
2023-01-19T23:59:14.485Z,20.58
